Time;durP1;ratioP1;P1;durP2;ratioP2;P2;SDS_P1;SDS_P2;PMS_P1;PMS_P2;Temp;Humidity;BMP_temperature;BMP_pressure;BME280_temperature;BME280_humidity;BME280_pressure;Samples;Min_cycle;Max_cycle;Signal;HPM_P1;HPM_P2
2022/01/31 00:01:04;;;;;;;11.32;1.70;;;;;;;4.06;82.74;101327.53;5065679;28;20043;-74
2022/01/31 00:03:33;;;;;;;2.92;1.50;;;;;;;4.32;82.14;101329.00;5074874;28;20131;-72
2022/01/31 00:06:01;;;;;;;11.63;1.52;;;;;;;4.58;80.82;101308.72;5063833;28;20087;-73
2022/01/31 00:08:28;;;;;;;1.85;1.08;;;;;;;4.74;80.06;101297.50;5067943;28;20043;-74
2022/01/31 00:10:55;;;;;;;0.70;0.65;;;;;;;4.80;79.33;101285.97;5068806;28;20067;-71
2022/01/31 00:13:26;;;;;;;8.77;0.98;;;;;;;4.91;79.25;101276.75;5066543;28;20043;-71
2022/01/31 00:15:56;;;;;;;1.40;0.52;;;;;;;4.99;78.51;101261.59;5065605;28;20113;-72
2022/01/31 00:18:22;;;;;;;3.05;1.23;;;;;;;4.95;78.47;101239.25;5061636;28;20652;-71
2022/01/31 00:20:49;;;;;;;1.00;0.88;;;;;;;5.03;78.10;101220.66;5067254;28;20128;-72
2022/01/31 00:23:17;;;;;;;2.60;1.73;;;;;;;5.00;78.30;101216.44;5067334;28;20048;-71
2022/01/31 00:25:44;;;;;;;5.57;2.22;;;;;;;5.06;78.33;101207.50;5065828;28;20048;-71
2022/01/31 00:28:10;;;;;;;1.15;1.00;;;;;;;5.03;78.86;101211.09;5067769;28;20042;-72
2022/01/31 00:30:37;;;;;;;14.90;2.90;;;;;;;5.05;78.64;101206.63;5066530;28;20055;-73
2022/01/31 00:33:04;;;;;;;6.40;1.60;;;;;;;5.07;77.88;101190.94;5069478;28;20158;-74
2022/01/31 00:35:30;;;;;;;4.50;1.65;;;;;;;5.13;78.27;101181.06;5068641;28;20048;-73
2022/01/31 00:37:57;;;;;;;3.83;1.00;;;;;;;5.15;78.35;101162.75;5065449;28;20157;-72
2022/01/31 00:40:25;;;;;;;7.80;1.35;;;;;;;5.12;78.77;101148.16;5068757;28;20158;-72
2022/01/31 00:42:52;;;;;;;1.33;0.68;;;;;;;5.15;77.82;101116.72;5069188;28;20086;-72
2022/01/31 00:45:24;;;;;;;2.95;2.28;;;;;;;5.13;78.19;101118.56;5068191;28;20075;-71
2022/01/31 00:48:00;;;;;;;12.95;1.77;;;;;;;5.05;78.59;101102.47;5064408;28;20036;-72
2022/01/31 00:50:27;;;;;;;3.60;1.42;;;;;;;5.10;78.58;101082.28;5070208;28;20067;-72
2022/01/31 00:52:56;;;;;;;3.38;1.50;;;;;;;5.11;78.78;101078.75;5064080;28;20048;-72
2022/01/31 00:55:25;;;;;;;2.38;1.40;;;;;;;5.12;79.07;101048.34;5071775;28;20051;-72
2022/01/31 00:57:51;;;;;;;1.02;0.75;;;;;;;5.18;78.09;101048.88;5075475;28;20039;-72
2022/01/31 01:00:18;;;;;;;6.00;1.60;;;;;;;5.23;78.06;101036.44;5086507;28;20147;-72
2022/01/31 01:02:45;;;;;;;7.80;1.42;;;;;;;5.29;77.92;101025.72;5089355;28;20048;-73
2022/01/31 01:05:13;;;;;;;27.67;1.17;;;;;;;5.32;77.48;101019.50;5093990;28;20092;-71
2022/01/31 01:07:39;;;;;;;2.92;0.75;;;;;;;5.28;77.94;101008.41;5067751;28;20529;-72
2022/01/31 01:10:07;;;;;;;5.68;1.85;;;;;;;5.30;78.27;101000.50;5066873;28;20047;-71
2022/01/31 01:12:35;;;;;;;4.75;1.13;;;;;;;5.32;78.36;100991.69;5066542;28;20046;-72
2022/01/31 01:15:01;;;;;;;1.95;1.02;;;;;;;5.34;77.83;100975.97;5066846;28;20044;-71
2022/01/31 01:17:28;;;;;;;5.95;1.35;;;;;;;5.31;78.92;100950.94;5066338;28;20048;-72
2022/01/31 01:19:55;;;;;;;5.40;1.10;;;;;;;5.32;79.32;100942.19;5068876;28;20052;-72
2022/01/31 01:22:22;;;;;;;12.77;1.30;;;;;;;5.30;79.56;100941.44;5065283;28;20077;-72
2022/01/31 01:24:49;;;;;;;7.18;0.93;;;;;;;5.30;79.90;100925.81;5066653;28;20050;-71
2022/01/31 01:27:18;;;;;;;14.15;1.75;;;;;;;5.32;80.28;100916.16;5067362;28;20140;-73
2022/01/31 01:29:47;;;;;;;2.70;1.73;;;;;;;5.27;80.38;100910.38;5068306;28;20073;-71
2022/01/31 01:32:14;;;;;;;4.32;1.67;;;;;;;5.33;81.39;100902.22;5064110;28;20052;-72
2022/01/31 01:34:41;;;;;;;7.00;1.42;;;;;;;5.25;82.95;100891.38;5066569;28;20075;-72
2022/01/31 01:37:09;;;;;;;6.70;1.75;;;;;;;5.17;84.44;100890.94;5065086;28;20065;-73
2022/01/31 01:39:36;;;;;;;4.97;1.77;;;;;;;5.17;84.35;100880.53;5066124;28;20057;-73
2022/01/31 01:42:03;;;;;;;4.05;1.13;;;;;;;5.15;85.09;100871.13;5067344;28;20051;-72
2022/01/31 01:44:40;;;;;;;4.45;2.55;;;;;;;5.19;84.88;100868.28;5064816;28;20123;-71
2022/01/31 01:47:08;;;;;;;2.50;0.95;;;;;;;5.17;85.65;100849.28;5067243;28;20040;-72
2022/01/31 01:49:34;;;;;;;10.43;3.00;;;;;;;5.17;85.93;100849.28;5067217;28;20122;-70
2022/01/31 01:52:02;;;;;;;5.18;1.83;;;;;;;5.11;87.19;100838.38;5065660;28;20047;-71
2022/01/31 01:54:28;;;;;;;3.35;0.63;;;;;;;5.01;88.77;100827.63;5065331;28;20043;-70
2022/01/31 01:56:55;;;;;;;7.10;2.10;;;;;;;4.95;89.59;100821.91;5065439;28;20044;-71
2022/01/31 01:59:21;;;;;;;2.35;1.23;;;;;;;4.91;90.62;100812.59;5062681;28;20062;-71
2022/01/31 02:01:48;;;;;;;2.20;0.93;;;;;;;4.85;90.78;100800.78;5067142;28;20036;-72
2022/01/31 02:04:18;;;;;;;3.03;1.13;;;;;;;4.75;92.34;100789.19;5070710;28;20093;-73
2022/01/31 02:06:45;;;;;;;8.60;1.30;;;;;;;4.72;92.56;100771.13;5065891;28;20051;-73
2022/01/31 02:09:12;;;;;;;0.93;0.65;;;;;;;4.72;92.81;100779.88;5069959;28;20053;-72
2022/01/31 02:11:38;;;;;;;4.45;0.90;;;;;;;4.70;93.41;100774.72;5074704;28;20036;-71
2022/01/31 02:14:05;;;;;;;3.45;1.58;;;;;;;4.72;92.90;100763.31;5069506;28;20122;-72
2022/01/31 02:16:32;;;;;;;3.15;0.77;;;;;;;4.68;93.94;100750.56;5069374;28;20045;-71
2022/01/31 02:18:59;;;;;;;1.50;0.75;;;;;;;4.65;93.63;100755.09;5069340;28;20047;-72
2022/01/31 02:21:27;;;;;;;1.08;0.85;;;;;;;4.58;94.21;100749.41;5069933;28;20044;-73
2022/01/31 02:23:54;;;;;;;11.23;1.73;;;;;;;4.55;94.72;100754.75;5072779;28;20040;-72
2022/01/31 02:26:20;;;;;;;4.55;2.45;;;;;;;4.54;95.37;100736.66;5077569;28;20085;-71
2022/01/31 02:28:48;;;;;;;3.05;1.80;;;;;;;4.46;95.82;100728.44;5056868;28;20473;-73
2022/01/31 02:31:15;;;;;;;2.20;1.45;;;;;;;4.42;95.49;100724.28;5077220;28;20050;-72
2022/01/31 02:33:41;;;;;;;1.38;0.80;;;;;;;4.36;96.06;100706.44;5068380;28;20059;-73
2022/01/31 02:36:08;;;;;;;2.33;1.08;;;;;;;4.35;96.24;100707.34;5068170;28;20054;-71
2022/01/31 02:38:37;;;;;;;2.10;0.98;;;;;;;4.29;95.77;100685.13;5066883;28;20071;-73
2022/01/31 02:41:04;;;;;;;1.10;0.82;;;;;;;4.25;96.37;100678.44;5066683;28;20427;-72
2022/01/31 02:43:32;;;;;;;2.38;1.27;;;;;;;4.27;96.21;100683.53;5064303;28;20040;-72
2022/01/31 02:46:00;;;;;;;2.15;1.65;;;;;;;4.23;96.57;100669.00;5065311;28;20135;-72
2022/01/31 02:48:30;;;;;;;1.73;0.90;;;;;;;4.24;96.77;100662.88;5065398;28;20182;-71
2022/01/31 02:50:58;;;;;;;2.38;1.70;;;;;;;4.23;97.30;100656.88;5064682;28;20055;-73
2022/01/31 02:53:26;;;;;;;1.08;0.40;;;;;;;4.27;97.43;100649.72;5062341;28;20507;-72
2022/01/31 02:55:56;;;;;;;2.83;1.70;;;;;;;4.28;97.47;100656.63;5061170;28;21039;-72
2022/01/31 02:58:24;;;;;;;2.38;1.58;;;;;;;4.29;97.73;100647.91;5042122;28;20072;-72
2022/01/31 03:00:51;;;;;;;1.48;1.00;;;;;;;4.31;97.97;100643.47;5066525;28;20132;-71
2022/01/31 03:03:18;;;;;;;1.02;0.85;;;;;;;4.35;98.67;100639.75;5067888;28;20585;-72
2022/01/31 03:05:45;;;;;;;1.42;1.13;;;;;;;4.40;98.33;100645.53;5069126;28;20047;-72
2022/01/31 03:08:11;;;;;;;3.55;1.33;;;;;;;4.40;98.54;100645.53;5065596;28;20032;-72
2022/01/31 03:10:38;;;;;;;3.85;0.90;;;;;;;4.45;98.27;100651.31;5070094;28;20043;-71
2022/01/31 03:13:07;;;;;;;3.22;1.75;;;;;;;4.47;99.04;100633.88;5068169;28;20048;-72
2022/01/31 03:15:34;;;;;;;3.85;1.17;;;;;;;4.48;99.22;100614.72;5072712;28;20044;-72
2022/01/31 03:18:01;;;;;;;1.40;1.13;;;;;;;4.52;99.16;100613.63;5069009;28;20035;-73
2022/01/31 03:20:28;;;;;;;0.55;0.43;;;;;;;4.50;98.96;100600.72;5071748;28;20092;-71
2022/01/31 03:22:55;;;;;;;2.67;1.13;;;;;;;4.52;99.10;100588.47;5070624;28;20040;-72
2022/01/31 03:25:22;;;;;;;3.97;1.42;;;;;;;4.53;99.74;100590.13;5070136;28;20040;-71
2022/01/31 03:27:49;;;;;;;5.32;1.15;;;;;;;4.57;99.71;100590.78;5072871;28;20152;-71
2022/01/31 03:30:19;;;;;;;0.77;0.32;;;;;;;4.60;99.69;100588.84;5072922;28;20054;-72
2022/01/31 03:32:46;;;;;;;1.30;1.10;;;;;;;4.60;99.85;100580.22;5073750;28;20059;-71
2022/01/31 03:35:13;;;;;;;1.35;0.95;;;;;;;4.65;99.55;100575.59;5076767;28;20032;-71
2022/01/31 03:37:40;;;;;;;1.50;0.90;;;;;;;4.68;100.00;100572.81;5085779;28;20040;-71
2022/01/31 03:40:08;;;;;;;11.23;1.25;;;;;;;4.72;100.00;100563.94;5088104;28;20086;-72
2022/01/31 03:42:35;;;;;;;0.68;0.68;;;;;;;4.78;99.93;100557.44;5096546;28;20047;-72
2022/01/31 03:45:02;;;;;;;2.38;1.67;;;;;;;4.86;99.86;100563.03;5068699;28;20147;-72
2022/01/31 03:47:31;;;;;;;1.33;0.77;;;;;;;4.93;99.40;100553.94;5064909;28;20101;-72
2022/01/31 03:49:57;;;;;;;2.13;1.30;;;;;;;5.00;99.33;100555.22;5065633;28;20048;-72
2022/01/31 03:52:24;;;;;;;3.40;0.95;;;;;;;5.07;99.32;100564.34;5064399;28;20048;-71
2022/01/31 03:54:51;;;;;;;1.35;1.25;;;;;;;5.14;99.42;100551.81;5067150;28;20063;-70
2022/01/31 03:57:19;;;;;;;0.65;0.43;;;;;;;5.15;99.50;100536.09;5067199;28;20399;-72
2022/01/31 03:59:46;;;;;;;1.10;0.70;;;;;;;5.15;99.32;100538.69;5067875;28;20510;-71
2022/01/31 04:02:13;;;;;;;0.93;0.80;;;;;;;5.21;99.74;100530.50;5066999;28;20130;-71
2022/01/31 04:04:40;;;;;;;2.55;1.30;;;;;;;5.23;99.64;100515.63;5070167;28;20072;-72
2022/01/31 04:07:07;;;;;;;3.40;2.00;;;;;;;5.34;98.91;100521.03;5066304;28;20170;-71
2022/01/31 04:09:34;;;;;;;1.10;0.73;;;;;;;5.44;98.43;100519.53;5066934;28;20540;-72
2022/01/31 04:12:00;;;;;;;0.82;0.68;;;;;;;5.51;98.67;100527.78;5065626;28;20047;-72
2022/01/31 04:14:28;;;;;;;2.85;2.00;;;;;;;5.52;98.89;100521.66;5064019;28;20036;-71
2022/01/31 04:16:56;;;;;;;5.88;1.45;;;;;;;5.54;98.63;100511.06;5071839;28;20043;-71
2022/01/31 04:19:24;;;;;;;2.03;1.27;;;;;;;5.70;97.75;100516.16;5067926;28;20071;-72
2022/01/31 04:21:52;;;;;;;1.17;0.88;;;;;;;5.66;97.51;100522.47;5063349;28;20366;-71
2022/01/31 04:24:23;;;;;;;0.43;0.40;;;;;;;5.67;97.55;100513.72;5070848;28;20058;-71
2022/01/31 04:26:59;;;;;;;1.67;1.23;;;;;;;5.76;97.52;100511.41;5063470;28;20580;-71
2022/01/31 04:29:30;;;;;;;1.00;0.65;;;;;;;5.80;97.25;100515.50;5072171;28;20123;-71
2022/01/31 04:31:57;;;;;;;3.53;1.38;;;;;;;5.82;97.57;100528.44;5064055;28;20055;-71
2022/01/31 04:34:24;;;;;;;7.60;1.65;;;;;;;5.91;97.44;100517.44;5068904;28;20059;-72
2022/01/31 04:36:52;;;;;;;5.30;0.93;;;;;;;5.88;97.35;100518.47;5064842;28;20503;-71
2022/01/31 04:39:19;;;;;;;1.92;0.82;;;;;;;5.88;97.30;100520.22;5066480;28;20145;-72
2022/01/31 04:41:47;;;;;;;4.57;0.90;;;;;;;5.84;97.39;100516.16;5065214;28;20124;-71
2022/01/31 04:44:14;;;;;;;3.00;1.50;;;;;;;5.85;97.43;100513.44;5069209;28;20066;-72
2022/01/31 04:46:41;;;;;;;6.45;1.95;;;;;;;5.83;97.04;100512.69;5068425;28;20056;-72
2022/01/31 04:49:08;;;;;;;1.80;1.38;;;;;;;5.85;97.23;100508.22;5068295;28;20090;-73
2022/01/31 04:51:35;;;;;;;7.95;1.17;;;;;;;5.90;96.81;100510.53;5093717;27;20531;-72
2022/01/31 04:54:03;;;;;;;6.50;1.30;;;;;;;5.91;96.91;100507.81;5067152;28;20051;-72
2022/01/31 04:56:32;;;;;;;1.70;1.08;;;;;;;5.95;95.91;100498.06;5064599;28;20044;-71
2022/01/31 04:58:58;;;;;;;1.25;1.10;;;;;;;6.01;96.07;100497.66;5064036;28;20044;-71
2022/01/31 05:01:25;;;;;;;2.58;0.85;;;;;;;5.97;96.20;100494.41;5063113;28;20046;-71
2022/01/31 05:03:51;;;;;;;2.30;1.20;;;;;;;6.03;95.45;100483.59;5063186;28;20052;-72
2022/01/31 05:06:25;;;;;;;0.80;0.40;;;;;;;6.07;94.93;100485.06;5062465;28;20048;-72
2022/01/31 05:08:52;;;;;;;4.78;1.00;;;;;;;6.13;94.71;100491.63;5063452;28;20046;-71
2022/01/31 05:11:20;;;;;;;6.18;1.80;;;;;;;6.05;94.01;100483.47;5065706;28;20058;-73
2022/01/31 05:13:46;;;;;;;3.75;0.93;;;;;;;6.11;93.11;100478.72;5082102;27;20052;-71
2022/01/31 05:16:13;;;;;;;5.70;0.98;;;;;;;6.17;92.41;100470.47;5065560;28;20777;-71
2022/01/31 05:18:40;;;;;;;1.20;0.93;;;;;;;6.24;91.15;100474.34;5066213;28;20047;-73
2022/01/31 05:21:08;;;;;;;0.30;0.25;;;;;;;6.22;90.91;100468.44;5065088;28;20044;-72
2022/01/31 05:23:35;;;;;;;0.43;0.40;;;;;;;6.21;91.19;100471.97;5061888;28;20043;-72
2022/01/31 05:26:02;;;;;;;25.92;2.78;;;;;;;6.22;90.78;100463.22;5062550;28;20044;-73
2022/01/31 05:28:31;;;;;;;0.52;0.38;;;;;;;6.27;90.05;100468.13;5066334;28;20048;-72
2022/01/31 05:30:58;;;;;;;2.50;1.33;;;;;;;6.27;90.06;100468.13;5066076;28;20188;-71
2022/01/31 05:33:24;;;;;;;2.83;0.80;;;;;;;6.21;90.57;100461.53;5063594;28;20094;-73
2022/01/31 05:35:52;;;;;;;0.95;0.40;;;;;;;6.24;89.69;100468.31;5061749;28;20055;-74
2022/01/31 05:38:19;;;;;;;1.08;0.60;;;;;;;6.19;90.10;100460.78;5061884;28;20506;-72
2022/01/31 05:40:48;;;;;;;3.92;1.40;;;;;;;6.25;89.13;100468.19;5068209;28;20071;-71
2022/01/31 05:43:16;;;;;;;0.47;0.35;;;;;;;6.22;89.59;100467.56;5068247;28;20123;-72
2022/01/31 05:45:44;;;;;;;2.13;0.63;;;;;;;6.23;88.97;100464.03;5068405;28;20040;-72
2022/01/31 05:48:11;;;;;;;1.65;0.63;;;;;;;6.16;89.44;100468.81;5067550;28;20526;-72
2022/01/31 05:50:37;;;;;;;1.70;0.93;;;;;;;6.20;88.21;100448.56;5069953;28;20036;-72
2022/01/31 05:53:04;;;;;;;5.88;0.93;;;;;;;6.18;88.78;100443.47;5063308;28;20169;-71
2022/01/31 05:55:31;;;;;;;0.82;0.55;;;;;;;6.14;88.75;100439.41;5070793;28;20128;-73
2022/01/31 05:57:58;;;;;;;2.30;1.00;;;;;;;6.20;88.10;100438.13;5068148;28;20059;-71
2022/01/31 06:00:25;;;;;;;8.98;1.20;;;;;;;6.13;87.76;100432.50;5067286;28;20145;-71
2022/01/31 06:02:58;;;;;;;3.50;0.98;;;;;;;6.15;88.96;100424.59;5067686;28;20039;-71
2022/01/31 06:05:25;;;;;;;4.30;0.38;;;;;;;6.05;88.27;100415.69;5051717;28;20083;-71
2022/01/31 06:07:51;;;;;;;4.60;1.23;;;;;;;6.00;89.16;100402.94;5066525;28;20040;-69
2022/01/31 06:10:18;;;;;;;6.55;1.52;;;;;;;5.93;88.82;100403.47;5066564;28;20174;-71
2022/01/31 06:12:45;;;;;;;0.40;0.32;;;;;;;5.98;88.19;100402.25;5077247;28;20108;-69
2022/01/31 06:15:12;;;;;;;12.15;0.57;;;;;;;5.98;88.97;100401.38;5114015;27;20044;-72
2022/01/31 06:17:40;;;;;;;5.15;1.10;;;;;;;5.90;89.65;100394.09;5092090;28;20036;-72
2022/01/31 06:20:10;;;;;;;2.33;1.15;;;;;;;5.83;90.34;100410.22;5081350;28;20050;-71
2022/01/31 06:22:44;;;;;;;0.60;0.50;;;;;;;5.70;90.57;100424.94;5065742;28;20059;-71
2022/01/31 06:25:12;;;;;;;0.75;0.57;;;;;;;5.68;91.29;100445.06;5059640;28;20048;-72
2022/01/31 06:27:38;;;;;;;1.95;1.05;;;;;;;5.57;92.93;100465.72;5062829;28;20366;-71
2022/01/31 06:30:07;;;;;;;5.20;1.45;;;;;;;5.48;93.92;100479.34;5068242;28;20048;-71
2022/01/31 06:32:34;;;;;;;6.75;1.60;;;;;;;5.31;94.60;100478.72;5068533;28;20050;-70
2022/01/31 06:35:00;;;;;;;11.70;0.85;;;;;;;5.01;95.39;100512.66;5066276;28;20075;-72
2022/01/31 06:37:28;;;;;;;1.95;0.52;;;;;;;4.67;95.52;100487.91;5065993;28;20040;-72
2022/01/31 06:39:55;;;;;;;0.60;0.40;;;;;;;4.56;96.25;100482.47;5062569;28;20166;-72
2022/01/31 06:42:23;;;;;;;0.73;0.60;;;;;;;4.58;96.80;100468.47;5066464;28;20520;-71
2022/01/31 06:44:49;;;;;;;0.38;0.28;;;;;;;4.60;96.42;100451.00;5066380;28;20110;-72
2022/01/31 06:47:16;;;;;;;2.15;0.68;;;;;;;4.61;96.56;100457.88;5065518;28;20071;-72
2022/01/31 06:49:43;;;;;;;2.20;1.10;;;;;;;4.64;96.75;100436.88;5069702;28;20037;-72
2022/01/31 06:52:09;;;;;;;0.75;0.35;;;;;;;4.70;96.01;100441.72;5064915;28;20044;-72
2022/01/31 06:54:37;;;;;;;2.65;0.35;;;;;;;4.66;95.91;100434.19;5066307;28;20044;-71
2022/01/31 06:57:05;;;;;;;2.65;0.47;;;;;;;4.72;95.82;100432.06;5066964;28;20047;-72
2022/01/31 06:59:32;;;;;;;1.42;0.60;;;;;;;4.72;95.57;100425.09;5065105;28;20047;-72
2022/01/31 07:01:58;;;;;;;0.40;0.25;;;;;;;4.76;95.62;100437.00;5066283;28;20051;-72
2022/01/31 07:04:25;;;;;;;2.40;0.90;;;;;;;4.85;95.47;100439.03;5072538;28;20040;-72
2022/01/31 07:06:51;;;;;;;0.85;0.40;;;;;;;4.96;94.23;100423.63;5067593;28;20119;-72
2022/01/31 07:09:18;;;;;;;1.60;1.48;;;;;;;4.93;95.05;100433.34;5071818;28;20055;-71
2022/01/31 07:11:49;;;;;;;0.47;0.38;;;;;;;4.95;95.16;100434.97;5071831;28;20079;-71
2022/01/31 07:14:30;;;;;;;0.80;0.40;;;;;;;4.94;95.72;100433.28;5071244;28;20044;-73
2022/01/31 07:16:56;;;;;;;4.40;0.82;;;;;;;5.01;94.57;100415.50;5076953;28;20035;-70
2022/01/31 07:19:27;;;;;;;3.33;1.13;;;;;;;5.04;94.33;100418.78;5070124;28;20041;-73
2022/01/31 07:21:53;;;;;;;4.95;1.23;;;;;;;5.07;94.55;100415.97;5064028;28;20043;-71
2022/01/31 07:24:24;;;;;;;5.10;0.80;;;;;;;5.10;94.01;100415.78;5068067;28;20076;-71
2022/01/31 07:26:57;;;;;;;3.78;1.45;;;;;;;5.17;93.33;100418.84;5070982;28;20118;-71
2022/01/31 07:29:24;;;;;;;1.38;0.93;;;;;;;5.18;93.76;100423.97;5073995;28;20103;-71
2022/01/31 07:31:51;;;;;;;3.10;0.93;;;;;;;5.16;94.35;100419.78;5071302;28;20040;-71
2022/01/31 07:34:19;;;;;;;1.05;0.60;;;;;;;5.16;95.08;100425.81;5067451;28;20116;-72
2022/01/31 07:36:47;;;;;;;2.05;0.98;;;;;;;5.19;94.57;100420.44;5072741;28;20044;-71
2022/01/31 07:39:14;;;;;;;1.65;1.02;;;;;;;5.22;93.72;100432.41;5059881;28;20048;-72
2022/01/31 07:41:41;;;;;;;2.05;1.40;;;;;;;5.20;94.21;100427.31;5068811;28;20040;-69
2022/01/31 07:44:09;;;;;;;18.02;1.13;;;;;;;5.21;94.28;100433.34;5072583;28;20039;-72
2022/01/31 07:46:36;;;;;;;0.30;0.28;;;;;;;5.18;94.05;100439.56;5071195;28;20490;-73
2022/01/31 07:49:03;;;;;;;6.65;1.50;;;;;;;5.10;95.44;100449.63;5077175;28;20048;-72
2022/01/31 07:51:30;;;;;;;6.10;1.35;;;;;;;5.09;94.89;100437.53;5073446;28;20075;-71
2022/01/31 07:53:56;;;;;;;2.17;1.10;;;;;;;5.07;95.85;100457.63;5072319;28;20090;-70
2022/01/31 07:56:23;;;;;;;0.65;0.45;;;;;;;5.03;95.47;100463.09;5100016;27;20652;-72
2022/01/31 07:58:50;;;;;;;3.05;0.77;;;;;;;5.00;96.42;100482.34;5076981;28;20040;-73
2022/01/31 08:01:18;;;;;;;2.67;1.15;;;;;;;4.94;95.48;100451.50;5076526;28;20040;-73
2022/01/31 08:03:45;;;;;;;11.57;1.45;;;;;;;4.88;95.35;100472.66;5079118;28;20063;-72
2022/01/31 08:06:12;;;;;;;5.00;1.48;;;;;;;4.84;96.58;100463.38;5079909;28;20040;-70
2022/01/31 08:08:39;;;;;;;1.15;0.85;;;;;;;4.81;96.40;100465.34;5076351;28;20044;-72
2022/01/31 08:11:06;;;;;;;0.75;0.50;;;;;;;4.82;96.74;100487.84;5065965;28;20040;-72
2022/01/31 08:13:33;;;;;;;1.58;1.05;;;;;;;4.79;95.81;100452.44;5080014;28;20117;-72
2022/01/31 08:16:09;;;;;;;0.68;0.30;;;;;;;4.78;95.96;100461.16;5082194;28;20040;-71
2022/01/31 08:18:39;;;;;;;3.60;0.95;;;;;;;4.75;96.16;100456.13;5079709;28;20041;-72
2022/01/31 08:21:07;;;;;;;0.40;0.40;;;;;;;4.79;96.60;100452.44;5079770;28;20064;-72
2022/01/31 08:23:34;;;;;;;5.00;1.75;;;;;;;4.80;95.52;100446.25;5072399;28;20044;-72
2022/01/31 08:26:01;;;;;;;4.22;1.05;;;;;;;4.80;95.62;100438.47;5073348;28;20079;-72
2022/01/31 08:28:35;;;;;;;1.15;0.47;;;;;;;4.81;95.93;100442.75;5070179;28;20052;-71
2022/01/31 08:31:07;;;;;;;0.60;0.45;;;;;;;4.83;95.74;100447.88;5081568;28;20158;-73
2022/01/31 08:33:35;;;;;;;0.20;0.20;;;;;;;4.86;95.43;100438.13;5074096;28;20071;-72
2022/01/31 08:36:05;;;;;;;3.50;0.43;;;;;;;4.87;96.06;100455.41;5079592;28;20072;-72
2022/01/31 08:38:32;;;;;;;4.28;1.35;;;;;;;4.86;96.24;100445.91;5064195;28;20064;-72
2022/01/31 08:40:59;;;;;;;5.07;0.80;;;;;;;4.89;96.67;100447.50;5081211;28;20044;-71
2022/01/31 08:43:27;;;;;;;0.70;0.50;;;;;;;4.89;96.68;100448.31;5081740;28;20556;-72
2022/01/31 08:45:55;;;;;;;1.48;0.55;;;;;;;4.94;96.43;100455.84;5083156;28;20040;-73
2022/01/31 08:48:22;;;;;;;10.05;1.67;;;;;;;4.91;96.94;100454.28;5094014;28;20058;-70
2022/01/31 08:50:49;;;;;;;5.30;1.60;;;;;;;4.95;96.46;100460.97;5094331;28;20044;-72
2022/01/31 08:53:17;;;;;;;9.30;2.22;;;;;;;4.97;96.51;100440.88;5091098;28;20044;-72
2022/01/31 08:55:47;;;;;;;7.05;1.08;;;;;;;5.00;96.34;100451.13;5092779;28;20042;-72
2022/01/31 08:58:14;;;;;;;1.83;0.40;;;;;;;5.03;96.25;100450.94;5076296;28;20072;-72
2022/01/31 09:00:41;;;;;;;0.73;0.47;;;;;;;5.09;95.38;100440.16;5092930;28;20115;-73
2022/01/31 09:03:21;;;;;;;1.10;0.40;;;;;;;5.09;95.77;100427.13;5073464;28;20051;-72
2022/01/31 09:05:48;;;;;;;0.45;0.32;;;;;;;5.10;95.78;100425.34;5089737;28;20135;-71
2022/01/31 09:08:17;;;;;;;1.92;0.63;;;;;;;5.10;96.10;100423.59;5073991;28;20040;-71
2022/01/31 09:10:44;;;;;;;5.72;2.22;;;;;;;5.17;95.78;100437.91;5064562;28;20110;-72
2022/01/31 09:13:12;;;;;;;5.05;1.83;;;;;;;5.17;95.96;100422.28;5074557;28;20044;-70
2022/01/31 09:15:40;;;;;;;3.22;0.60;;;;;;;5.21;95.21;100434.16;5076123;28;20039;-72
2022/01/31 09:18:07;;;;;;;4.75;0.95;;;;;;;5.29;93.90;100418.06;5076286;28;20043;-71
2022/01/31 09:20:34;;;;;;;17.27;1.65;;;;;;;5.28;95.29;100425.06;5076609;28;20044;-72
2022/01/31 09:23:02;;;;;;;3.55;1.65;;;;;;;5.31;94.44;100419.66;5074744;28;20044;-73
2022/01/31 09:25:30;;;;;;;1.90;0.40;;;;;;;5.27;95.28;100428.59;5069891;28;20059;-72
2022/01/31 09:27:57;;;;;;;2.13;1.30;;;;;;;5.27;95.73;100436.41;5071213;28;20051;-71
2022/01/31 09:30:26;;;;;;;1.05;0.52;;;;;;;5.29;95.88;100426.75;5071792;28;20388;-73
2022/01/31 09:32:54;;;;;;;4.53;1.55;;;;;;;5.34;94.59;100429.03;5071997;28;20090;-71
2022/01/31 09:35:22;;;;;;;3.75;1.35;;;;;;;5.32;95.33;100442.16;5072526;28;20509;-73
2022/01/31 09:37:48;;;;;;;13.27;1.83;;;;;;;5.34;94.73;100429.88;5067889;28;20920;-71
2022/01/31 09:40:19;;;;;;;3.25;1.05;;;;;;;5.34;94.84;100432.47;5076116;28;20097;-71
2022/01/31 09:43:11;;;;;;;5.82;1.77;;;;;;;5.30;95.76;100438.81;5072636;28;20044;-72
2022/01/31 09:45:53;;;;;;;;;;;;;;;5.32;95.08;100442.16;5076780;28;20040;-72
2022/01/31 09:48:35;;;;;;;12.68;2.70;;;;;;;5.36;94.42;100443.66;5072627;28;19924;-73
2022/01/31 09:51:06;;;;;;;3.90;1.48;;;;;;;5.31;94.85;100445.69;5075772;28;20043;-72
2022/01/31 09:53:36;;;;;;;5.18;1.15;;;;;;;5.35;95.28;100448.94;5064812;28;20043;-71
2022/01/31 09:56:04;;;;;;;3.47;1.27;;;;;;;5.36;94.55;100443.66;5075521;28;20128;-72
2022/01/31 09:58:32;;;;;;;3.80;0.80;;;;;;;5.36;94.46;100463.63;5072341;28;20047;-71
2022/01/31 10:01:04;;;;;;;1.45;0.55;;;;;;;5.37;94.10;100455.75;5074379;28;20059;-72
2022/01/31 10:03:35;;;;;;;4.10;0.65;;;;;;;5.37;94.68;100470.50;5076566;28;20047;-71
2022/01/31 10:06:01;;;;;;;4.07;1.23;;;;;;;5.39;94.39;100456.47;5075793;28;20043;-72
2022/01/31 10:08:30;;;;;;;0.73;0.43;;;;;;;5.40;94.68;100455.53;5076231;28;20052;-72
2022/01/31 10:11:01;;;;;;;2.03;1.08;;;;;;;5.43;94.76;100476.19;5074007;28;20047;-72
2022/01/31 10:16:30;;;;;;;5.97;1.52;;;;;;;5.37;94.61;100484.41;5072542;28;20048;-71
2022/01/31 10:19:02;;;;;;;3.20;0.70;;;;;;;5.36;94.41;100480.13;5075637;28;20054;-71
2022/01/31 10:21:29;;;;;;;8.52;1.65;;;;;;;5.38;94.34;100493.03;5075485;28;20052;-71
2022/01/31 10:23:56;;;;;;;7.82;0.90;;;;;;;5.38;94.46;100506.88;5070282;28;20037;-71
2022/01/31 10:26:30;;;;;;;5.43;1.73;;;;;;;5.42;94.33;100526.59;5073782;28;20119;-73
2022/01/31 10:29:11;;;;;;;7.80;1.20;;;;;;;5.40;94.57;100517.22;5072103;28;20048;-71
2022/01/31 10:31:38;;;;;;;4.35;1.85;;;;;;;5.40;94.26;100535.44;5088918;28;20052;-73
2022/01/31 10:34:18;;;;;;;13.82;1.48;;;;;;;5.34;94.86;100560.09;5074822;28;20043;-73
2022/01/31 10:36:45;;;;;;;1.95;0.63;;;;;;;5.30;94.26;100527.34;5073993;28;20048;-70
2022/01/31 10:39:15;;;;;;;3.17;1.05;;;;;;;5.31;95.21;100533.41;5070796;28;20055;-73
2022/01/31 10:44:58;;;;;;;6.35;1.83;;;;;;;5.29;95.03;100543.94;5073809;28;20060;-73
2022/01/31 10:53:13;;;;;;;2.45;1.15;;;;;;;5.32;95.46;100546.31;5030195;28;20112;-72
2022/01/31 10:55:40;;;;;;;4.35;1.67;;;;;;;5.42;93.92;100555.25;5072583;28;20083;-72
2022/01/31 10:58:08;;;;;;;20.10;2.15;;;;;;;5.48;94.20;100536.63;5071602;28;20040;-72
2022/01/31 11:00:37;;;;;;;0.88;0.40;;;;;;;5.51;94.24;100538.22;5075077;28;20040;-72
2022/01/31 11:03:30;;;;;;;9.63;2.67;;;;;;;5.48;93.92;100560.09;5064304;28;20082;-72
2022/01/31 11:05:58;;;;;;;11.73;2.28;;;;;;;5.49;94.00;100558.34;5077715;28;20036;-72
2022/01/31 11:08:25;;;;;;;14.38;1.85;;;;;;;5.48;95.48;100567.91;5074065;28;20044;-72
2022/01/31 11:10:57;;;;;;;13.82;2.67;;;;;;;5.49;93.78;100563.53;5075285;28;20059;-72
2022/01/31 11:13:25;;;;;;;24.02;2.30;;;;;;;5.46;94.43;100571.53;5069050;28;20040;-72
2022/01/31 11:15:53;;;;;;;20.55;4.28;;;;;;;5.44;94.42;100576.84;5075675;28;20036;-72
2022/01/31 11:18:20;;;;;;;14.82;2.65;;;;;;;5.45;94.92;100581.13;5071979;28;21213;-72
2022/01/31 11:20:52;;;;;;;26.25;3.03;;;;;;;5.53;93.47;100576.28;5076398;28;20044;-73
2022/01/31 11:23:20;;;;;;;16.23;3.58;;;;;;;5.59;93.87;100591.53;5073900;28;20071;-72
2022/01/31 11:25:48;;;;;;;6.82;1.67;;;;;;;5.68;93.11;100576.16;5082268;28;20044;-72
2022/01/31 11:28:16;;;;;;;14.38;2.17;;;;;;;5.70;92.92;100587.34;5095284;28;20058;-72
2022/01/31 11:30:43;;;;;;;4.10;1.40;;;;;;;5.69;93.15;100587.44;5096811;28;20038;-72
2022/01/31 11:33:11;;;;;;;11.85;2.83;;;;;;;5.67;93.25;100597.94;5100179;28;20108;-72
2022/01/31 11:35:38;;;;;;;29.55;2.35;;;;;;;5.66;92.85;100619.72;5125503;27;20048;-72
2022/01/31 11:38:04;;;;;;;15.93;1.70;;;;;;;5.65;92.95;100607.66;5073536;28;20199;-71
2022/01/31 11:40:31;;;;;;;11.85;1.50;;;;;;;5.70;94.00;100615.19;5076092;28;20056;-72
2022/01/31 11:42:58;;;;;;;3.10;1.30;;;;;;;5.64;93.54;100626.81;5074754;28;20036;-73
2022/01/31 11:45:26;;;;;;;24.23;2.55;;;;;;;5.66;93.36;100631.91;5075958;28;20068;-72
2022/01/31 11:47:54;;;;;;;5.72;2.10;;;;;;;5.63;93.04;100608.63;5075409;28;20093;-72